Time;durP1;ratioP1;P1;durP2;ratioP2;P2;SDS_P1;SDS_P2;PMS_P1;PMS_P2;Temp;Humidity;BMP_temperature;BMP_pressure;BME280_temperature;BME280_humidity;BME280_pressure;Samples;Min_cycle;Max_cycle;Signal;HPM_P1;HPM_P2
2022/07/31 00:00:30;;;;;;;18.42;9.43;;;;;;;16.92;100.00;156771.75;4996543;28;20062;-72
2022/07/31 00:02:56;;;;;;;16.25;8.80;;;;;;;16.95;100.00;156779.44;4995742;28;20033;-71
2022/07/31 00:05:23;;;;;;;15.45;8.73;;;;;;;16.88;100.00;156762.72;4993805;28;20042;-71
2022/07/31 00:07:49;;;;;;;16.00;8.93;;;;;;;16.94;100.00;156776.88;5021695;28;20033;-70
2022/07/31 00:10:15;;;;;;;17.08;8.38;;;;;;;16.90;100.00;156766.59;5001412;28;20025;-71
2022/07/31 00:12:40;;;;;;;18.80;8.63;;;;;;;16.96;100.00;156780.75;4986664;28;20175;-71
2022/07/31 00:15:08;;;;;;;17.30;8.27;;;;;;;16.94;100.00;156776.88;4998296;28;20120;-71
2022/07/31 00:17:36;;;;;;;14.13;8.23;;;;;;;16.85;100.00;156753.69;5002827;28;20457;-72
2022/07/31 00:20:02;;;;;;;13.88;8.00;;;;;;;16.79;100.00;156739.47;4997326;28;20072;-71
2022/07/31 00:22:30;;;;;;;17.15;8.07;;;;;;;16.86;100.00;156756.28;4982114;28;20035;-71
2022/07/31 00:24:56;;;;;;;17.77;7.28;;;;;;;16.80;100.00;156742.09;4999287;28;20030;-72
2022/07/31 00:27:22;;;;;;;14.07;7.25;;;;;;;16.72;100.00;156721.44;4993046;28;20044;-70
2022/07/31 00:29:48;;;;;;;15.65;8.23;;;;;;;16.63;100.00;156698.25;4974138;28;20089;-72
2022/07/31 00:32:14;;;;;;;16.92;8.02;;;;;;;16.60;100.00;156690.56;4973440;28;20046;-70
2022/07/31 00:34:41;;;;;;;19.20;9.25;;;;;;;16.63;100.00;156698.25;4994459;28;20030;-71
2022/07/31 00:37:07;;;;;;;17.08;8.95;;;;;;;16.54;100.00;156677.69;4994040;28;20031;-72
2022/07/31 00:39:33;;;;;;;20.63;9.18;;;;;;;16.49;100.00;156664.78;5000632;28;20064;-71
2022/07/31 00:41:59;;;;;;;14.40;8.30;;;;;;;16.38;100.00;156636.47;5010371;28;20038;-71
2022/07/31 00:44:24;;;;;;;19.27;10.40;;;;;;;16.38;100.00;156635.19;4995780;28;20048;-71
2022/07/31 00:46:51;;;;;;;15.77;10.15;;;;;;;16.37;100.00;156632.59;4981107;28;20052;-71
2022/07/31 00:49:17;;;;;;;15.73;8.93;;;;;;;16.39;100.00;156639.06;5003854;28;20038;-71
2022/07/31 00:51:46;;;;;;;21.65;9.23;;;;;;;16.35;100.00;156628.78;5003603;28;20072;-71
2022/07/31 00:54:12;;;;;;;14.73;9.18;;;;;;;16.22;100.00;156595.25;5004243;28;20384;-72
2022/07/31 00:56:39;;;;;;;20.23;9.88;;;;;;;16.27;100.00;156609.41;5011573;28;20026;-71
2022/07/31 00:59:04;;;;;;;16.15;9.05;;;;;;;16.23;100.00;156597.84;4988686;28;20407;-71
2022/07/31 01:01:31;;;;;;;15.77;12.52;;;;;;;16.25;100.00;156604.28;4999940;28;20034;-71
2022/07/31 01:03:57;;;;;;;16.83;10.55;;;;;;;16.31;100.00;156619.75;5019597;28;20041;-70
2022/07/31 01:06:22;;;;;;;17.02;12.77;;;;;;;16.37;100.00;156632.59;5002017;28;20038;-70
2022/07/31 01:08:48;;;;;;;22.67;11.75;;;;;;;16.31;100.00;156618.44;5004370;28;20056;-72
2022/07/31 01:11:17;;;;;;;20.90;11.95;;;;;;;16.22;100.00;156596.56;5017668;28;20192;-71
2022/07/31 01:13:49;;;;;;;18.25;11.20;;;;;;;16.20;100.00;156590.09;4998204;28;20033;-71
2022/07/31 01:16:17;;;;;;;;;;;;;;;16.20;100.00;156591.44;5001488;28;20041;-70
2022/07/31 01:18:44;;;;;;;20.58;11.45;;;;;;;16.18;100.00;156586.28;5012826;28;20007;-71
2022/07/31 01:21:26;;;;;;;26.55;13.30;;;;;;;16.22;100.00;156595.25;4969979;28;20128;-71
2022/07/31 01:24:29;;;;;;;16.75;12.20;;;;;;;16.18;100.00;156586.28;4987531;28;20474;-71
2022/07/31 01:27:23;;;;;;;19.75;11.80;;;;;;;16.08;100.00;156561.78;4978718;28;20129;-71
2022/07/31 01:29:53;;;;;;;14.75;11.25;;;;;;;16.04;100.00;156550.22;4965491;28;20045;-71
2022/07/31 01:32:37;;;;;;;18.17;11.65;;;;;;;16.08;100.00;156560.50;4996845;28;20478;-71
2022/07/31 01:35:24;;;;;;;15.48;10.57;;;;;;;15.99;100.00;156538.63;4959604;28;20177;-71
2022/07/31 01:38:04;;;;;;;20.17;11.98;;;;;;;15.99;100.00;156537.34;4979688;28;20048;-72
2022/07/31 01:40:36;;;;;;;16.48;10.40;;;;;;;15.86;100.00;156506.47;4967992;28;20115;-71
2022/07/31 01:43:10;;;;;;;18.50;11.07;;;;;;;15.89;100.00;156514.16;5002576;28;20073;-71
2022/07/31 01:45:40;;;;;;;16.13;11.52;;;;;;;15.88;100.00;156511.63;5020780;28;20034;-71
2022/07/31 01:48:11;;;;;;;15.48;10.90;;;;;;;15.84;100.00;156501.31;4963147;28;20100;-72
2022/07/31 01:50:39;;;;;;;16.92;11.27;;;;;;;15.84;100.00;156500.00;4966827;28;20148;-72
2022/07/31 01:53:07;;;;;;;20.40;11.15;;;;;;;15.75;100.00;156478.16;4982302;28;20042;-71
2022/07/31 01:55:35;;;;;;;18.33;10.20;;;;;;;15.73;100.00;156474.28;4983789;28;20407;-71
2022/07/31 01:58:02;;;;;;;18.83;10.30;;;;;;;15.76;100.00;156480.72;4980211;28;20025;-72
2022/07/31 02:00:33;;;;;;;14.53;10.33;;;;;;;15.77;100.00;156483.31;4991206;28;20400;-70
2022/07/31 02:03:03;;;;;;;14.00;9.30;;;;;;;15.73;100.00;156474.28;4997801;28;20033;-70
2022/07/31 02:05:34;;;;;;;;;;;;;;;15.66;100.00;156454.94;4980800;28;20045;-71
2022/07/31 02:08:03;;;;;;;14.18;8.85;;;;;;;15.58;100.00;156435.63;5006693;28;19975;-70
2022/07/31 02:10:31;;;;;;;13.70;9.55;;;;;;;15.52;100.00;156421.50;4967809;28;20125;-70
2022/07/31 02:13:01;;;;;;;18.90;11.32;;;;;;;15.56;100.00;156430.50;4970178;28;20362;-70
2022/07/31 02:15:30;;;;;;;15.20;11.02;;;;;;;15.71;100.00;156467.81;4982069;28;20070;-70
2022/07/31 02:17:57;;;;;;;19.17;10.25;;;;;;;15.69;100.00;156462.63;4995637;28;20668;-71
2022/07/31 02:20:38;;;;;;;15.07;9.23;;;;;;;15.59;100.00;156438.19;4997658;28;20049;-71
2022/07/31 02:23:05;;;;;;;17.13;9.68;;;;;;;15.56;100.00;156431.78;4919895;28;1357876;-71
2022/07/31 02:25:34;;;;;;;19.33;10.55;;;;;;;15.53;100.00;156422.75;5006257;28;20033;-71
2022/07/31 02:28:07;;;;;;;13.85;10.75;;;;;;;15.44;100.00;156400.88;4994981;28;20156;-71
2022/07/31 02:30:35;;;;;;;18.23;11.57;;;;;;;15.38;100.00;156386.72;4983953;28;20057;-71
2022/07/31 02:33:03;;;;;;;15.57;10.10;;;;;;;15.43;100.00;156397.03;4972757;28;20044;-72
2022/07/31 02:35:30;;;;;;;19.20;11.90;;;;;;;15.40;100.00;156389.31;5004521;28;20038;-73
2022/07/31 02:37:57;;;;;;;14.98;12.23;;;;;;;15.41;100.00;156391.84;4989229;28;20046;-71
2022/07/31 02:40:24;;;;;;;17.48;13.25;;;;;;;15.38;100.00;156385.44;4985042;28;20046;-71
2022/07/31 02:42:51;;;;;;;16.45;13.35;;;;;;;15.32;100.00;156371.28;4983819;28;20036;-72
2022/07/31 02:45:17;;;;;;;20.60;13.68;;;;;;;15.26;100.00;156354.59;4989244;28;20069;-71
2022/07/31 02:47:47;;;;;;;17.20;13.45;;;;;;;15.20;100.00;156340.44;5001614;28;20052;-71
2022/07/31 02:50:17;;;;;;;23.58;14.57;;;;;;;15.15;100.00;156328.81;4990341;28;20042;-71
2022/07/31 02:52:45;;;;;;;23.73;14.38;;;;;;;14.98;100.00;156286.38;5001363;28;20771;-71
2022/07/31 02:55:11;;;;;;;20.48;14.68;;;;;;;14.95;100.00;156278.63;4976732;28;20030;-71
2022/07/31 02:57:36;;;;;;;20.85;15.07;;;;;;;14.88;100.00;156259.34;4993237;28;20594;-71
2022/07/31 03:00:25;;;;;;;18.63;14.48;;;;;;;14.79;100.00;156238.78;4977536;28;20443;-71
2022/07/31 03:02:54;;;;;;;28.05;14.55;;;;;;;14.70;100.00;156215.63;4989985;28;20116;-70
2022/07/31 03:05:21;;;;;;;22.48;15.05;;;;;;;14.69;100.00;156213.06;4969898;28;20502;-71
2022/07/31 03:07:48;;;;;;;19.48;15.52;;;;;;;14.66;100.00;156205.34;4988796;28;20399;-71
2022/07/31 03:10:14;;;;;;;24.90;17.23;;;;;;;14.58;100.00;156186.06;4992967;28;20044;-71
2022/07/31 03:12:47;;;;;;;19.70;16.45;;;;;;;14.58;100.00;156186.06;4997383;28;20858;-71
2022/07/31 03:15:16;;;;;;;26.85;17.08;;;;;;;14.58;100.00;156184.78;4988935;28;20040;-72
2022/07/31 03:17:44;;;;;;;19.23;15.98;;;;;;;14.62;100.00;156195.06;4993039;28;20046;-71
2022/07/31 03:20:15;;;;;;;21.75;17.48;;;;;;;14.51;100.00;156168.00;4971983;28;20447;-71
2022/07/31 03:22:43;;;;;;;21.92;18.08;;;;;;;14.49;100.00;156161.56;4999878;28;20098;-71
2022/07/31 03:25:09;;;;;;;23.05;17.70;;;;;;;14.43;100.00;156147.44;4978667;28;20482;-71
2022/07/31 03:27:36;;;;;;;24.23;18.67;;;;;;;14.41;100.00;156143.56;4998012;28;20438;-71
2022/07/31 03:30:03;;;;;;;27.17;20.92;;;;;;;14.45;100.00;156152.56;4992389;28;20531;-70
2022/07/31 03:32:29;;;;;;;24.08;19.50;;;;;;;14.39;100.00;156137.09;4968209;28;20068;-71
2022/07/31 03:34:56;;;;;;;27.17;20.20;;;;;;;14.35;100.00;156126.81;4982190;28;20038;-71
2022/07/31 03:37:23;;;;;;;24.27;19.90;;;;;;;14.36;100.00;156129.41;4997600;28;20046;-71
2022/07/31 03:39:51;;;;;;;25.98;20.67;;;;;;;14.36;100.00;156130.69;5003606;28;20056;-71
2022/07/31 03:42:18;;;;;;;28.35;21.42;;;;;;;14.33;100.00;156121.69;4992452;28;20045;-71
2022/07/31 03:44:45;;;;;;;26.73;19.80;;;;;;;14.20;100.00;156089.53;4982019;28;20049;-71
2022/07/31 03:47:11;;;;;;;28.30;21.50;;;;;;;14.27;100.00;156106.28;4975829;28;20033;-71
2022/07/31 03:49:38;;;;;;;25.83;20.90;;;;;;;14.27;100.00;156106.28;4963820;28;20089;-72
2022/07/31 03:52:04;;;;;;;27.80;20.52;;;;;;;14.28;100.00;156110.13;5002633;28;20477;-71
2022/07/31 03:54:30;;;;;;;29.70;21.63;;;;;;;14.28;100.00;156108.81;5008718;28;20038;-72
2022/07/31 03:57:09;;;;;;;25.30;21.02;;;;;;;14.27;100.00;156107.53;5001774;28;20029;-70
2022/07/31 03:59:35;;;;;;;30.25;20.50;;;;;;;14.28;100.00;156108.81;5019718;28;20116;-71
2022/07/31 04:02:01;;;;;;;25.52;20.15;;;;;;;14.29;100.00;156112.69;4991973;28;20148;-69
2022/07/31 04:04:43;;;;;;;29.95;20.73;;;;;;;14.32;100.00;156119.13;4986312;28;20048;-71
2022/07/31 04:07:09;;;;;;;26.38;20.35;;;;;;;14.31;100.00;156116.53;4993930;28;20029;-71
2022/07/31 04:09:35;;;;;;;29.27;20.92;;;;;;;14.31;100.00;156117.81;5014664;28;20148;-70
2022/07/31 04:12:03;;;;;;;27.67;20.25;;;;;;;14.34;100.00;156124.28;5004557;28;20057;-71
2022/07/31 04:14:29;;;;;;;29.55;21.95;;;;;;;14.34;100.00;156125.56;5018963;28;20120;-70
2022/07/31 04:16:55;;;;;;;27.48;20.30;;;;;;;14.36;100.00;156130.69;4994981;28;20145;-70
2022/07/31 04:19:22;;;;;;;29.98;20.15;;;;;;;14.39;100.00;156137.09;5005425;28;20038;-70
2022/07/31 04:21:49;;;;;;;23.38;20.05;;;;;;;14.43;100.00;156147.44;5003479;28;20025;-70
2022/07/31 04:24:17;;;;;;;22.73;19.38;;;;;;;14.47;100.00;156157.72;5007744;28;20030;-71
2022/07/31 04:27:03;;;;;;;20.38;17.88;;;;;;;14.51;100.00;156168.00;5007874;28;20387;-72
2022/07/31 04:29:36;;;;;;;22.65;20.17;;;;;;;14.54;100.00;156175.72;5006463;28;20041;-71
2022/07/31 04:32:03;;;;;;;26.95;18.58;;;;;;;14.58;100.00;156184.78;5006088;28;20755;-69
2022/07/31 04:34:37;;;;;;;22.08;16.23;;;;;;;14.65;100.00;156202.75;5007852;28;20053;-72
2022/07/31 04:37:03;;;;;;;22.02;17.35;;;;;;;14.69;100.00;156213.06;5011347;28;20029;-70
2022/07/31 04:39:30;;;;;;;29.35;19.70;;;;;;;14.75;100.00;156228.50;5006885;28;20033;-71
2022/07/31 04:41:56;;;;;;;22.88;18.58;;;;;;;14.83;100.00;156246.50;5003282;28;20057;-71
2022/07/31 04:44:22;;;;;;;22.95;17.77;;;;;;;14.94;100.00;156274.81;5003508;28;20069;-71
2022/07/31 04:46:58;;;;;;;23.70;17.77;;;;;;;15.06;100.00;156304.38;5001281;28;20030;-71
2022/07/31 04:49:23;;;;;;;26.00;17.60;;;;;;;15.14;100.00;156324.97;4992702;28;20041;-71
2022/07/31 04:51:49;;;;;;;24.50;16.58;;;;;;;15.20;100.00;156340.44;5005906;28;20034;-71
2022/07/31 04:54:15;;;;;;;23.73;17.77;;;;;;;15.25;100.00;156352.00;5006079;28;20379;-72
2022/07/31 04:56:41;;;;;;;24.60;17.08;;;;;;;15.30;100.00;156366.13;5005167;28;20132;-72
2022/07/31 04:59:10;;;;;;;24.00;17.92;;;;;;;15.34;100.00;156376.44;5003134;28;20030;-71
2022/07/31 05:01:40;;;;;;;24.95;17.73;;;;;;;15.35;100.00;156377.69;5000769;28;20041;-71
2022/07/31 05:04:07;;;;;;;24.10;16.80;;;;;;;15.33;100.00;156373.88;5004703;28;20038;-72
2022/07/31 05:06:33;;;;;;;25.42;18.00;;;;;;;15.32;100.00;156370.00;4998784;28;20499;-72
2022/07/31 05:08:59;;;;;;;26.60;18.52;;;;;;;15.37;100.00;156382.88;4988780;28;20034;-71
2022/07/31 05:11:28;;;;;;;30.02;19.67;;;;;;;15.42;100.00;156395.72;5009186;28;20496;-72
2022/07/31 05:13:56;;;;;;;27.23;20.02;;;;;;;15.49;100.00;156413.75;4996942;28;20642;-72
2022/07/31 05:16:23;;;;;;;26.75;19.33;;;;;;;15.55;100.00;156427.91;4969326;28;20507;-71
2022/07/31 05:18:52;;;;;;;22.83;17.50;;;;;;;15.58;100.00;156435.63;4981717;28;20113;-72
2022/07/31 05:21:37;;;;;;;28.10;18.23;;;;;;;15.62;100.00;156445.94;5005595;28;20083;-70
2022/07/31 05:24:22;;;;;;;28.42;17.08;;;;;;;15.64;100.00;156451.06;5015073;28;20037;-71
2022/07/31 05:26:56;;;;;;;23.95;16.60;;;;;;;15.68;100.00;156460.09;5005238;28;20677;-69
2022/07/31 05:29:22;;;;;;;24.85;17.73;;;;;;;15.67;100.00;156457.47;5013521;28;20033;-72
2022/07/31 05:31:48;;;;;;;21.10;16.88;;;;;;;15.68;100.00;156460.09;4995868;28;20090;-71
2022/07/31 05:34:15;;;;;;;24.73;17.52;;;;;;;15.65;100.00;156453.66;4999617;28;20042;-71
2022/07/31 05:36:41;;;;;;;25.38;16.00;;;;;;;15.66;100.00;156456.22;5006699;28;20035;-71
2022/07/31 05:39:08;;;;;;;27.88;17.00;;;;;;;15.72;100.00;156471.63;5003071;28;20045;-70
2022/07/31 05:41:39;;;;;;;18.65;15.70;;;;;;;15.77;100.00;156484.56;5003604;28;20407;-70
2022/07/31 05:44:05;;;;;;;21.65;15.27;;;;;;;15.88;100.00;156511.63;5001888;28;20030;-71
2022/07/31 05:46:35;;;;;;;26.38;16.40;;;;;;;15.98;100.00;156536.06;5012935;28;20526;-71
2022/07/31 05:49:01;;;;;;;29.83;17.50;;;;;;;16.12;100.00;156570.81;5003138;28;20034;-70
2022/07/31 05:51:29;;;;;;;27.98;16.45;;;;;;;16.24;100.00;156601.72;4998650;28;20029;-70
2022/07/31 05:53:54;;;;;;;24.75;16.08;;;;;;;16.45;100.00;156654.50;4992916;28;20069;-71
2022/07/31 05:56:39;;;;;;;25.15;15.10;;;;;;;16.67;100.00;156709.88;5013012;28;20054;-72
2022/07/31 05:59:06;;;;;;;18.67;14.57;;;;;;;16.90;100.00;156767.88;4988197;28;20522;-71
2022/07/31 06:01:31;;;;;;;21.77;14.38;;;;;;;17.19;100.00;156839.97;5001534;28;20029;-72
2022/07/31 06:03:57;;;;;;;21.42;13.55;;;;;;;17.37;100.00;156885.09;5000609;28;20065;-71
2022/07/31 06:06:31;;;;;;;21.75;13.77;;;;;;;17.48;100.00;156913.44;5001516;28;20505;-71
2022/07/31 06:08:56;;;;;;;24.33;13.00;;;;;;;17.68;100.00;156962.38;4986652;28;20045;-70
2022/07/31 06:11:24;;;;;;;16.95;11.45;;;;;;;17.79;100.00;156990.72;5000350;28;20133;-72
2022/07/31 06:13:50;;;;;;;21.40;12.30;;;;;;;17.88;100.00;157013.97;4982410;28;20044;-71
2022/07/31 06:16:26;;;;;;;17.67;11.02;;;;;;;17.86;100.00;157007.53;4999879;28;20057;-71
2022/07/31 06:18:51;;;;;;;15.25;10.02;;;;;;;17.95;100.00;157030.75;4989302;28;20096;-71
2022/07/31 06:21:18;;;;;;;15.32;8.93;;;;;;;17.99;100.00;157041.03;4997999;28;20519;-72
2022/07/31 06:23:44;;;;;;;11.70;8.98;;;;;;;17.87;100.00;157011.38;5006112;28;20071;-71
2022/07/31 06:26:23;;;;;;;19.52;9.55;;;;;;;17.86;100.00;157007.53;5002984;28;20650;-71
2022/07/31 06:28:49;;;;;;;14.40;8.52;;;;;;;18.07;100.00;157060.38;5009320;28;20022;-71
2022/07/31 06:31:22;;;;;;;15.30;9.05;;;;;;;18.12;100.00;157071.94;5001913;28;20041;-72
2022/07/31 06:33:51;;;;;;;13.02;8.18;;;;;;;18.05;100.00;157056.50;4995924;28;20030;-70
2022/07/31 06:36:20;;;;;;;13.45;7.40;;;;;;;18.10;100.00;157068.06;5001134;28;20034;-72
2022/07/31 06:39:00;;;;;;;14.93;7.60;;;;;;;18.05;100.00;157055.22;4999621;28;20061;-72
2022/07/31 06:41:43;;;;;;;19.70;7.97;;;;;;;18.04;100.00;157053.88;5003068;28;20065;-71
2022/07/31 06:44:28;;;;;;;9.27;7.30;;;;;;;18.17;100.00;157084.84;5004601;28;20251;-72
2022/07/31 06:47:13;;;;;;;12.75;7.32;;;;;;;18.04;100.00;157052.63;5005323;28;20052;-73
2022/07/31 06:49:53;;;;;;;12.70;6.95;;;;;;;18.06;100.00;157057.75;4993129;28;20503;-72
2022/07/31 06:52:18;;;;;;;16.73;7.30;;;;;;;18.08;100.00;157064.25;4995599;28;20554;-70
2022/07/31 06:54:44;;;;;;;15.45;7.47;;;;;;;18.16;100.00;157083.56;5002786;28;20033;-72
2022/07/31 06:57:11;;;;;;;17.42;7.78;;;;;;;18.24;100.00;157104.16;4998327;28;20030;-71
2022/07/31 06:59:37;;;;;;;11.57;8.05;;;;;;;18.15;100.00;157080.97;5006203;28;20164;-71
2022/07/31 07:02:03;;;;;;;11.73;8.10;;;;;;;18.34;100.00;157128.66;4972372;28;20496;-72
2022/07/31 07:04:28;;;;;;;13.85;8.00;;;;;;;18.39;100.00;157140.28;5003395;28;20136;-71
2022/07/31 07:06:54;;;;;;;13.02;6.82;;;;;;;18.42;100.00;157147.97;4997082;28;20030;-71
2022/07/31 07:09:19;;;;;;;12.68;6.07;;;;;;;18.46;100.00;157158.31;4985724;28;20041;-71
2022/07/31 07:11:46;;;;;;;13.00;6.10;;;;;;;18.61;100.00;157197.00;5004530;28;20463;-71
2022/07/31 07:14:15;;;;;;;10.82;7.18;;;;;;;18.68;100.00;157215.06;4986101;28;20034;-72
2022/07/31 07:16:41;;;;;;;15.68;7.45;;;;;;;18.79;100.00;157242.09;5014930;28;20041;-71
2022/07/31 07:19:07;;;;;;;14.32;8.05;;;;;;;18.66;100.00;157209.84;5001066;28;20483;-71
2022/07/31 07:21:32;;;;;;;13.43;7.75;;;;;;;18.64;100.00;157203.41;5012685;28;20072;-71
2022/07/31 07:23:58;;;;;;;12.32;6.70;;;;;;;18.69;100.00;157216.31;4999523;28;20034;-72
2022/07/31 07:26:32;;;;;;;12.38;5.95;;;;;;;18.77;100.00;157236.94;4990096;28;20064;-72
2022/07/31 07:29:01;;;;;;;11.23;5.18;;;;;;;18.74;100.00;157227.91;4982930;28;20042;-72
2022/07/31 07:31:28;;;;;;;10.48;4.60;;;;;;;18.78;100.00;157238.22;4989177;28;20034;-72
2022/07/31 07:33:55;;;;;;;8.73;4.50;;;;;;;18.96;100.00;157284.69;4995672;28;20034;-72
2022/07/31 07:36:23;;;;;;;12.82;4.47;;;;;;;18.96;100.00;157283.41;4999161;28;20044;-71
2022/07/31 07:38:49;;;;;;;6.97;3.80;;;;;;;19.08;98.87;157314.38;5004222;28;20485;-71
2022/07/31 07:41:15;;;;;;;10.65;4.03;;;;;;;19.10;96.48;157319.53;4996608;28;20038;-72
2022/07/31 07:43:41;;;;;;;6.85;3.33;;;;;;;19.15;96.03;157331.13;5005253;28;20721;-73
2022/07/31 07:46:07;;;;;;;4.82;3.05;;;;;;;19.23;96.52;157351.72;5000466;28;20099;-72
2022/07/31 07:48:33;;;;;;;10.43;4.22;;;;;;;19.35;99.55;157382.69;4985064;28;20124;-72
2022/07/31 07:51:19;;;;;;;7.28;4.65;;;;;;;19.47;98.84;157411.06;4998044;28;20510;-72
2022/07/31 07:54:00;;;;;;;9.57;4.90;;;;;;;19.53;98.55;157427.81;4999672;28;20038;-72
2022/07/31 07:56:38;;;;;;;12.98;4.85;;;;;;;19.50;95.70;157418.81;5003910;28;20030;-72
2022/07/31 07:59:21;;;;;;;10.63;4.10;;;;;;;19.38;93.23;157390.47;5006894;28;20034;-72
2022/07/31 08:02:05;;;;;;;9.50;4.10;;;;;;;19.34;96.54;157380.09;5001447;28;20083;-71
2022/07/31 08:04:33;;;;;;;6.97;4.13;;;;;;;19.33;96.00;157376.25;5004936;28;20117;-72
2022/07/31 08:06:58;;;;;;;7.03;3.45;;;;;;;19.43;95.86;157402.03;4999333;28;20495;-71
2022/07/31 08:09:30;;;;;;;11.35;3.63;;;;;;;19.47;94.19;157412.34;4994877;28;20034;-72
2022/07/31 08:12:14;;;;;;;7.72;3.25;;;;;;;19.47;96.36;157411.06;5006739;28;20034;-71
2022/07/31 08:15:08;;;;;;;8.55;3.05;;;;;;;19.48;92.55;157413.63;5008994;28;20034;-71
2022/07/31 08:17:37;;;;;;;5.10;2.28;;;;;;;19.50;91.01;157418.81;5007117;28;20035;-73
2022/07/31 08:20:04;;;;;;;7.90;2.25;;;;;;;19.64;90.38;157454.91;5005848;28;20088;-73
2022/07/31 08:22:30;;;;;;;2.92;2.05;;;;;;;19.64;90.65;157454.91;4990915;28;20087;-71
2022/07/31 08:24:56;;;;;;;4.20;1.90;;;;;;;19.62;87.85;157451.03;4987046;28;20124;-72
2022/07/31 08:27:25;;;;;;;5.38;2.05;;;;;;;19.58;89.74;157440.72;5010261;28;20045;-72
2022/07/31 08:29:53;;;;;;;3.65;2.40;;;;;;;19.75;89.84;157483.34;4980389;28;20089;-72
2022/07/31 08:32:19;;;;;;;7.68;2.20;;;;;;;19.68;86.08;157463.94;5008727;28;20513;-73
2022/07/31 08:35:04;;;;;;;4.25;1.98;;;;;;;19.70;87.76;157469.09;5005002;28;20141;-71
2022/07/31 08:37:30;;;;;;;5.03;2.35;;;;;;;19.67;87.55;157461.38;4990038;28;20034;-73
2022/07/31 08:39:56;;;;;;;7.30;2.45;;;;;;;19.67;87.53;157462.66;5000670;28;20502;-72
2022/07/31 08:42:23;;;;;;;8.02;2.40;;;;;;;19.81;88.09;157497.53;5003258;28;20029;-73
2022/07/31 08:44:48;;;;;;;8.73;2.60;;;;;;;20.14;87.25;157580.13;4989868;28;20034;-73
2022/07/31 08:47:17;;;;;;;5.07;2.15;;;;;;;20.19;88.29;157594.31;4980785;28;20612;-73
2022/07/31 08:49:44;;;;;;;5.53;2.60;;;;;;;20.38;88.44;157642.03;5000909;28;20037;-72
2022/07/31 08:52:24;;;;;;;5.68;2.45;;;;;;;20.55;89.12;157684.63;5001449;28;20037;-72
2022/07/31 08:55:06;;;;;;;5.25;3.08;;;;;;;20.57;88.55;157688.50;4986655;28;20709;-71
2022/07/31 08:57:32;;;;;;;6.82;3.15;;;;;;;20.60;88.94;157696.28;5005306;28;20073;-73
2022/07/31 08:59:58;;;;;;;4.38;2.60;;;;;;;20.59;88.77;157694.94;5003346;28;20034;-73
2022/07/31 09:02:24;;;;;;;11.15;3.17;;;;;;;20.54;90.75;157682.03;4994176;28;20080;-71
2022/07/31 09:05:09;;;;;;;3.50;2.25;;;;;;;20.55;90.71;157683.31;5005686;28;20035;-71
2022/07/31 09:07:35;;;;;;;6.30;3.00;;;;;;;20.71;91.77;157723.38;5002810;28;20038;-71
2022/07/31 09:10:02;;;;;;;5.88;2.40;;;;;;;20.80;89.59;157747.91;4986763;28;20088;-72
2022/07/31 09:12:29;;;;;;;4.43;2.22;;;;;;;20.89;85.97;157769.84;4992289;28;20200;-71
2022/07/31 09:15:19;;;;;;;7.13;2.38;;;;;;;20.96;86.10;157787.94;4997643;28;20054;-71
2022/07/31 09:17:45;;;;;;;3.50;2.28;;;;;;;21.09;84.59;157818.88;5009817;28;20107;-71
2022/07/31 09:20:17;;;;;;;5.88;1.90;;;;;;;21.15;81.51;157834.38;4989670;28;20587;-71
2022/07/31 09:22:43;;;;;;;5.22;2.40;;;;;;;;;;4999879;28;20172;-72
2022/07/31 09:25:14;;;;;;;7.65;2.10;;;;;;;21.16;81.68;157838.25;4998627;28;20042;-71
2022/07/31 09:27:40;;;;;;;4.45;2.20;;;;;;;21.20;82.19;157847.28;5019520;28;20129;-71
2022/07/31 09:30:07;;;;;;;7.45;2.05;;;;;;;21.15;81.58;157834.38;4995140;28;20023;-72
2022/07/31 09:32:52;;;;;;;4.40;2.03;;;;;;;21.29;79.72;157870.53;5001785;28;20056;-73
2022/07/31 09:35:25;;;;;;;4.20;1.98;;;;;;;21.30;79.89;157873.09;4996261;28;20554;-72
2022/07/31 09:37:50;;;;;;;6.00;1.98;;;;;;;21.35;81.74;157886.00;5001547;28;20030;-70
2022/07/31 09:40:42;;;;;;;4.28;1.73;;;;;;;21.35;82.23;157884.72;4999251;28;20041;-72
2022/07/31 09:43:40;;;;;;;5.15;2.20;;;;;;;21.42;79.29;157901.47;5000715;28;20044;-71
2022/07/31 09:46:07;;;;;;;5.97;2.00;;;;;;;21.58;79.33;157942.88;5016230;28;20030;-72
2022/07/31 09:48:34;;;;;;;5.00;2.05;;;;;;;21.64;80.25;157957.06;4999851;28;20567;-71
2022/07/31 09:51:06;;;;;;;2.50;1.70;;;;;;;21.67;80.04;157964.84;5008446;28;20088;-72
2022/07/31 09:54:01;;;;;;;3.80;1.85;;;;;;;21.69;76.19;157970.00;4999049;28;20748;-71
2022/07/31 09:56:48;;;;;;;3.50;1.73;;;;;;;21.65;78.29;157960.94;4999825;28;20053;-73
2022/07/31 09:59:15;;;;;;;2.80;1.50;;;;;;;21.95;77.28;158035.84;4998365;28;20034;-72
2022/07/31 10:01:44;;;;;;;7.68;1.70;;;;;;;22.20;75.51;158099.13;5003473;28;20069;-71
2022/07/31 10:04:11;;;;;;;6.78;1.63;;;;;;;22.43;76.57;158156.00;5003599;28;20411;-72
2022/07/31 10:06:40;;;;;;;4.35;1.67;;;;;;;22.51;72.35;158176.69;5002971;28;20041;-71
2022/07/31 10:09:06;;;;;;;3.10;1.48;;;;;;;22.71;71.36;158227.06;4987122;28;20074;-72
2022/07/31 10:12:13;;;;;;;4.00;1.60;;;;;;;22.86;71.72;158264.53;4992990;28;20129;-71
2022/07/31 10:14:43;;;;;;;2.15;1.30;;;;;;;22.83;68.81;158256.75;5009075;28;20036;-73
2022/07/31 10:17:12;;;;;;;3.35;1.48;;;;;;;22.98;70.10;158295.56;5007391;28;20072;-73
2022/07/31 10:19:57;;;;;;;3.63;1.55;;;;;;;23.08;67.44;158320.13;5002444;28;20092;-72
2022/07/31 10:22:44;;;;;;;3.63;1.50;;;;;;;23.26;66.51;158366.66;4999483;28;20045;-73
2022/07/31 10:25:19;;;;;;;4.97;1.30;;;;;;;23.59;66.27;158448.09;5001557;28;20034;-70
2022/07/31 10:27:46;;;;;;;2.72;1.45;;;;;;;23.69;65.56;158473.91;5005418;28;20049;-71
2022/07/31 10:30:12;;;;;;;5.93;1.70;;;;;;;23.79;64.49;158498.50;4998187;28;20029;-71
2022/07/31 10:32:43;;;;;;;5.40;1.70;;;;;;;23.75;63.67;158489.41;4997165;28;20087;-71
2022/07/31 10:35:26;;;;;;;4.40;1.40;;;;;;;23.86;66.05;158517.91;5004733;28;20050;-72
2022/07/31 10:38:10;;;;;;;2.75;1.30;;;;;;;24.04;62.95;158561.88;4986821;28;20037;-72
2022/07/31 10:41:20;;;;;;;2.45;1.30;;;;;;;24.12;62.61;158582.56;5002103;28;20041;-71
2022/07/31 10:43:51;;;;;;;4.82;1.50;;;;;;;24.13;62.39;158583.84;5005116;28;20029;-72
2022/07/31 10:46:40;;;;;;;4.93;1.25;;;;;;;24.48;63.74;158674.34;5003295;28;20520;-73
2022/07/31 10:49:48;;;;;;;4.13;1.60;;;;;;;24.64;62.76;158713.22;4992450;28;20491;-73
2022/07/31 10:52:36;;;;;;;3.40;1.30;;;;;;;24.76;62.91;158742.94;4992695;28;20545;-72
2022/07/31 10:55:24;;;;;;;3.65;1.50;;;;;;;24.72;60.43;158732.59;5007841;28;20044;-72
2022/07/31 10:58:15;;;;;;;3.97;1.13;;;;;;;24.84;60.96;158764.91;4998427;28;20054;-72
2022/07/31 11:01:06;;;;;;;3.33;1.20;;;;;;;25.04;60.63;158815.34;4999392;28;20099;-72
2022/07/31 11:03:59;;;;;;;4.50;1.52;;;;;;;25.15;58.87;158841.25;5005904;28;20064;-72
2022/07/31 11:06:43;;;;;;;3.43;1.20;;;;;;;25.03;60.26;158812.78;4999137;28;20403;-72
2022/07/31 11:09:28;;;;;;;3.88;1.50;;;;;;;25.15;57.49;158841.25;4991212;28;20114;-70
2022/07/31 11:12:15;;;;;;;2.28;1.20;;;;;;;24.99;57.48;158802.41;5000898;28;20129;-72
2022/07/31 11:14:46;;;;;;;3.22;1.30;;;;;;;24.84;58.42;158763.63;5004191;28;20072;-71
2022/07/31 11:17:41;;;;;;;5.65;1.23;;;;;;;24.90;60.33;158777.84;4988291;28;20124;-72
2022/07/31 11:20:29;;;;;;;4.43;1.15;;;;;;;24.82;58.81;158758.44;5001858;28;20129;-73
2022/07/31 11:23:10;;;;;;;3.10;1.30;;;;;;;24.55;60.12;158689.94;4978542;28;20563;-73
2022/07/31 11:25:36;;;;;;;4.53;1.27;;;;;;;24.65;62.56;158717.06;5002438;28;20042;-71
2022/07/31 11:28:14;;;;;;;5.32;1.40;;;;;;;24.81;58.63;158757.16;5007991;28;20057;-73
2022/07/31 11:30:51;;;;;;;2.40;1.27;;;;;;;24.79;60.66;158750.66;4999315;28;20033;-72